createdAt,value
2022-08-19T00:00:38.847Z,10.63
2022-08-19T00:01:45.356Z,11.81
2022-08-19T00:02:51.454Z,11.19
2022-08-19T00:03:56.774Z,10.81
2022-08-19T00:05:00.927Z,11.75
2022-08-19T00:06:07.049Z,10.00
2022-08-19T00:07:11.008Z,9.56
2022-08-19T00:08:17.901Z,11.19
2022-08-19T00:09:23.854Z,12.81
2022-08-19T00:10:28.391Z,11.44
2022-08-19T00:11:32.554Z,10.25
2022-08-19T00:12:36.675Z,7.81
2022-08-19T00:13:42.373Z,13.56
2022-08-19T00:14:46.490Z,13.75
2022-08-19T00:15:50.653Z,15.13
2022-08-19T00:16:55.777Z,15.31
2022-08-19T00:17:59.949Z,17.87
2022-08-19T00:19:08.160Z,16.62
2022-08-19T00:20:16.754Z,17.12
2022-08-19T00:21:20.869Z,16.62
2022-08-19T00:22:25.099Z,17.81
2022-08-19T00:23:29.065Z,17.25
2022-08-19T00:24:36.166Z,18.44
2022-08-19T00:25:44.876Z,17.25
2022-08-19T00:26:46.530Z,16.87
2022-08-19T00:27:50.763Z,12.37
2022-08-19T00:29:00.461Z,9.25
2022-08-19T00:30:06.918Z,11.00
2022-08-19T00:31:11.647Z,12.00
2022-08-19T00:32:15.704Z,11.50
2022-08-19T00:33:23.147Z,11.69
2022-08-19T00:34:29.179Z,6.75
2022-08-19T00:35:33.273Z,11.75
2022-08-19T00:36:40.833Z,10.00
2022-08-19T00:37:50.623Z,9.81
2022-08-19T00:38:54.592Z,11.06
2022-08-19T00:39:58.670Z,12.25
2022-08-19T00:41:03.238Z,10.75
2022-08-19T00:42:08.133Z,11.44
2022-08-19T00:43:12.948Z,10.50
2022-08-19T00:44:27.099Z,11.81
2022-08-19T00:45:31.468Z,11.50
2022-08-19T00:46:40.893Z,11.19
2022-08-19T00:47:46.409Z,11.12
2022-08-19T00:48:50.391Z,11.31
2022-08-19T00:49:57.404Z,10.50
2022-08-19T00:51:04.476Z,12.13
2022-08-19T00:52:13.042Z,11.81
2022-08-19T00:53:20.183Z,11.00
2022-08-19T00:54:28.671Z,11.81
2022-08-19T00:55:31.810Z,11.94
2022-08-19T00:56:36.654Z,13.25
2022-08-19T00:57:43.837Z,13.38
2022-08-19T00:58:49.439Z,14.44
2022-08-19T01:00:01.593Z,14.06
2022-08-19T01:01:01.882Z,12.37
2022-08-19T01:02:08.100Z,13.00
2022-08-19T01:03:15.246Z,12.31
2022-08-19T01:04:19.228Z,11.63
2022-08-19T01:05:26.281Z,10.88
2022-08-19T01:06:33.394Z,11.25
2022-08-19T01:07:39.048Z,12.25
2022-08-19T01:08:44.629Z,11.00
2022-08-19T01:09:48.793Z,13.44
2022-08-19T01:10:55.831Z,11.44
2022-08-19T01:12:02.218Z,10.13
2022-08-19T01:13:06.810Z,10.63
2022-08-19T01:14:11.861Z,11.75
2022-08-19T01:15:18.938Z,10.81
2022-08-19T01:16:26.423Z,12.06
2022-08-19T01:17:31.014Z,8.13
2022-08-19T01:18:42.901Z,12.50
2022-08-19T01:19:54.610Z,12.75
2022-08-19T01:20:59.967Z,10.88
2022-08-19T01:22:28.794Z,12.13
2022-08-19T01:23:27.660Z,11.94
2022-08-19T01:24:31.696Z,10.75
2022-08-19T01:25:38.682Z,12.63
2022-08-19T01:26:45.797Z,10.31
2022-08-19T01:27:53.287Z,12.25
2022-08-19T01:29:01.096Z,11.44
2022-08-19T01:30:06.232Z,12.31
2022-08-19T01:31:27.377Z,9.25
2022-08-19T01:32:33.629Z,11.19
2022-08-19T01:33:24.923Z,13.81
2022-08-19T01:34:28.951Z,11.19
2022-08-19T01:35:33.174Z,12.00
2022-08-19T01:36:43.426Z,11.25
2022-08-19T01:37:58.949Z,11.25
2022-08-19T01:39:08.302Z,12.63
2022-08-19T01:40:13.618Z,12.37
2022-08-19T01:41:19.259Z,10.00
2022-08-19T01:42:30.435Z,11.81
2022-08-19T01:43:29.145Z,12.06
2022-08-19T01:44:33.110Z,12.50
2022-08-19T01:45:38.067Z,14.13
2022-08-19T01:46:43.178Z,14.19
2022-08-19T01:48:01.218Z,12.37
2022-08-19T01:48:53.704Z,11.38
2022-08-19T01:50:00.119Z,14.00
2022-08-19T01:51:04.899Z,12.25
2022-08-19T01:52:08.858Z,12.69
2022-08-19T01:53:14.706Z,13.69
2022-08-19T01:54:23.270Z,12.50
2022-08-19T01:55:27.667Z,13.25
2022-08-19T01:56:32.175Z,11.75
2022-08-19T01:57:37.174Z,11.00
2022-08-19T01:58:44.141Z,8.06
2022-08-19T01:59:48.452Z,10.13
2022-08-19T02:00:52.606Z,13.25
2022-08-19T02:01:57.094Z,9.19
2022-08-19T02:03:02.452Z,13.31
2022-08-19T02:04:06.492Z,12.37
2022-08-19T02:05:11.515Z,14.19
2022-08-19T02:06:16.920Z,13.38
2022-08-19T02:07:22.252Z,13.25
2022-08-19T02:08:27.788Z,11.19
2022-08-19T02:09:33.429Z,12.06
2022-08-19T02:10:40.399Z,12.88
2022-08-19T02:11:44.464Z,13.44
2022-08-19T02:12:49.393Z,12.69
2022-08-19T02:13:55.400Z,14.07
2022-08-19T02:15:01.009Z,15.31
2022-08-19T02:16:05.194Z,15.19
2022-08-19T02:17:09.521Z,12.69
2022-08-19T02:18:14.619Z,11.88
2022-08-19T02:19:18.781Z,15.06
2022-08-19T02:20:23.043Z,15.20
2022-08-19T02:21:27.504Z,9.31
2022-08-19T02:22:31.538Z,9.56
2022-08-19T02:23:35.608Z,13.06
2022-08-19T02:24:39.576Z,13.75
2022-08-19T02:25:46.646Z,12.56
2022-08-19T02:26:50.989Z,13.56
2022-08-19T02:27:55.202Z,11.31
2022-08-19T02:28:59.262Z,12.94
2022-08-19T02:30:06.989Z,13.00
2022-08-19T02:31:14.146Z,13.00
2022-08-19T02:32:19.545Z,14.19
2022-08-19T02:33:26.502Z,13.25
2022-08-19T02:34:30.638Z,13.88
2022-08-19T02:35:34.603Z,13.06
2022-08-19T02:36:42.522Z,10.56
2022-08-19T02:37:46.023Z,13.94
2022-08-19T02:38:54.337Z,13.75
2022-08-19T02:39:56.114Z,13.38
2022-08-19T02:41:03.666Z,13.75
2022-08-19T02:42:07.834Z,10.75
2022-08-19T02:43:11.801Z,12.50
2022-08-19T02:44:29.791Z,12.31
2022-08-19T02:45:23.046Z,14.13
2022-08-19T02:46:29.527Z,11.06
2022-08-19T02:47:33.553Z,12.75
2022-08-19T02:48:37.565Z,13.25
2022-08-19T02:49:41.989Z,14.38
2022-08-19T02:50:53.618Z,13.44
2022-08-19T02:51:57.603Z,12.75
2022-08-19T02:53:01.607Z,12.75
2022-08-19T02:54:07.036Z,13.25
2022-08-19T02:55:11.545Z,13.31
2022-08-19T02:56:16.977Z,13.56
2022-08-19T02:57:21.169Z,12.56
2022-08-19T02:58:25.594Z,13.50
2022-08-19T02:59:34.897Z,13.31
2022-08-19T03:00:47.478Z,13.13
2022-08-19T03:01:51.462Z,13.81
2022-08-19T03:02:55.893Z,12.50
2022-08-19T03:04:02.539Z,12.13
2022-08-19T03:05:08.037Z,11.69
2022-08-19T03:06:14.958Z,12.94
2022-08-19T03:07:21.007Z,12.44
2022-08-19T03:08:26.024Z,12.50
2022-08-19T03:09:30.135Z,13.69
2022-08-19T03:10:34.758Z,14.00
2022-08-19T03:11:41.217Z,13.06
2022-08-19T03:12:47.873Z,12.31
2022-08-19T03:13:51.664Z,12.00
2022-08-19T03:14:55.642Z,11.75
2022-08-19T03:15:59.710Z,14.06
2022-08-19T03:17:05.122Z,13.56
2022-08-19T03:18:09.345Z,13.94
2022-08-19T03:19:16.183Z,12.44
2022-08-19T03:20:21.461Z,11.12
2022-08-19T03:21:27.697Z,13.38
2022-08-19T03:22:31.947Z,13.75
2022-08-19T03:23:36.361Z,13.44
2022-08-19T03:24:40.476Z,13.38
2022-08-19T03:25:47.302Z,11.50
2022-08-19T03:26:55.996Z,11.88
2022-08-19T03:28:01.582Z,12.13
2022-08-19T03:29:10.214Z,11.00
2022-08-19T03:30:14.394Z,12.06
2022-08-19T03:38:12.995Z,10.31
2022-08-19T03:39:18.122Z,11.12
2022-08-19T03:40:23.788Z,8.31
2022-08-19T03:41:45.343Z,11.19
2022-08-19T03:42:49.689Z,11.94
2022-08-19T03:43:54.875Z,25.75
2022-08-19T03:44:59.012Z,19.31
2022-08-19T03:46:10.132Z,21.25
2022-08-19T03:47:15.849Z,34.93
2022-08-19T03:48:44.373Z,9.50
2022-08-19T03:50:02.591Z,19.37
2022-08-19T03:52:18.907Z,11.19
2022-08-19T03:53:24.488Z,5.94
2022-08-19T03:54:33.300Z,8.06
2022-08-19T03:55:45.650Z,10.38
2022-08-19T03:56:52.072Z,9.00
2022-08-19T03:58:01.536Z,8.69
2022-08-19T03:59:02.264Z,9.69
2022-08-19T04:00:13.432Z,6.31
2022-08-19T04:01:21.096Z,16.12
2022-08-19T04:02:32.894Z,21.80
2022-08-19T04:03:33.625Z,41.93
2022-08-19T04:04:44.729Z,54.63
2022-08-19T04:05:49.457Z,55.88
2022-08-19T04:06:55.243Z,68.19
2022-08-19T04:08:03.894Z,67.94
2022-08-19T04:09:12.115Z,62.44
2022-08-19T04:10:17.896Z,64.62
2022-08-19T04:11:43.272Z,69.69
2022-08-19T04:12:34.410Z,70.75
2022-08-19T04:13:41.882Z,70.87
2022-08-19T04:14:48.345Z,66.62
2022-08-19T04:15:52.484Z,49.87
2022-08-19T04:16:59.255Z,76.40
2022-08-19T04:18:07.706Z,71.44
2022-08-19T04:19:17.132Z,88.47
2022-08-19T04:20:24.642Z,70.60
2022-08-19T04:21:29.914Z,84.13
2022-08-19T04:22:51.640Z,82.81
2022-08-19T04:23:46.474Z,97.93
2022-08-19T04:24:58.991Z,89.56
2022-08-19T04:26:11.289Z,89.20
2022-08-19T04:27:43.056Z,94.07
2022-08-19T04:28:32.733Z,92.56
2022-08-19T04:29:36.632Z,99.13
2022-08-19T04:30:48.186Z,104.12
2022-08-19T04:31:54.252Z,116.06
2022-08-19T04:33:00.125Z,111.25
2022-08-19T04:34:10.377Z,107.37
2022-08-19T04:35:22.022Z,102.00
2022-08-19T04:36:29.076Z,118.19
2022-08-19T04:37:35.412Z,108.19
2022-08-19T04:38:38.853Z,121.00
2022-08-19T04:39:42.950Z,132.00
2022-08-19T04:40:51.792Z,127.81
2022-08-19T04:41:57.321Z,136.75
2022-08-19T04:43:01.473Z,124.38
2022-08-19T04:44:06.299Z,127.12
2022-08-19T04:45:15.716Z,114.50
2022-08-19T04:46:39.254Z,112.56
2022-08-19T04:47:48.335Z,119.94
2022-08-19T04:48:31.884Z,126.81
2022-08-19T04:49:38.997Z,103.87
2022-08-19T04:50:45.116Z,109.00
2022-08-19T04:51:53.019Z,100.19
2022-08-19T04:53:01.692Z,92.56
2022-08-19T04:54:05.990Z,93.94
2022-08-19T04:55:13.625Z,102.56
2022-08-19T04:56:21.025Z,96.37
2022-08-19T04:57:25.640Z,90.44
2022-08-19T04:58:30.180Z,105.19
2022-08-19T04:59:40.430Z,102.50
2022-08-19T05:00:44.992Z,105.87
2022-08-19T05:01:49.821Z,105.87
2022-08-19T05:02:59.863Z,112.56
2022-08-19T05:04:07.371Z,101.73
2022-08-19T05:05:24.301Z,112.37
2022-08-19T05:07:00.779Z,119.69
2022-08-19T05:07:44.025Z,117.87
2022-08-19T05:08:43.716Z,111.94
2022-08-19T05:09:57.082Z,164.19
2022-08-19T05:10:53.834Z,93.13
2022-08-19T05:11:57.966Z,95.38
2022-08-19T05:13:01.999Z,99.25
2022-08-19T05:14:06.865Z,103.94
2022-08-19T05:15:13.838Z,105.63
2022-08-19T05:16:20.942Z,93.37
2022-08-19T05:17:28.923Z,100.19
2022-08-19T05:18:34.054Z,99.37
2022-08-19T05:20:25.227Z,91.44
2022-08-19T05:20:47.084Z,95.50
2022-08-19T05:21:51.389Z,99.31
2022-08-19T05:22:58.468Z,110.63
2022-08-19T05:24:02.768Z,125.19
2022-08-19T05:25:13.703Z,107.12
2022-08-19T05:26:19.157Z,98.19
2022-08-19T05:27:23.263Z,124.25
2022-08-19T05:28:27.955Z,97.37
2022-08-19T05:29:36.323Z,98.62
2022-08-19T05:30:47.121Z,89.37
2022-08-19T05:31:48.584Z,97.56
2022-08-19T05:32:54.021Z,94.94
2022-08-19T05:33:58.439Z,105.12
2022-08-19T05:35:05.225Z,103.56
2022-08-19T05:36:10.090Z,118.25
2022-08-19T05:37:14.236Z,107.31
2022-08-19T05:38:19.488Z,123.69
2022-08-19T05:39:25.586Z,122.00
2022-08-19T05:40:33.736Z,107.06
2022-08-19T05:41:41.632Z,96.31
2022-08-19T05:42:45.509Z,117.25
2022-08-19T05:43:51.289Z,104.00
2022-08-19T05:44:55.552Z,112.62
2022-08-19T05:45:59.621Z,101.38
2022-08-19T05:47:08.408Z,106.25
2022-08-19T05:48:13.618Z,94.31
2022-08-19T05:49:19.140Z,95.50
2022-08-19T05:50:27.631Z,102.56
2022-08-19T05:51:34.224Z,100.94
2022-08-19T05:52:42.225Z,112.50
2022-08-19T05:53:45.211Z,103.56
2022-08-19T05:54:51.479Z,96.75
2022-08-19T05:55:55.021Z,100.06
2022-08-19T05:57:02.746Z,103.50
2022-08-19T05:58:06.966Z,109.31
2022-08-19T05:59:12.133Z,105.44
2022-08-19T06:00:40.946Z,84.81
2022-08-19T06:01:44.406Z,101.81
2022-08-19T06:02:50.343Z,101.00
2022-08-19T06:04:20.111Z,97.50
2022-08-19T06:05:07.059Z,94.94
2022-08-19T06:06:28.571Z,95.00
2022-08-19T06:07:24.552Z,103.81
2022-08-19T06:08:33.675Z,114.06
2022-08-19T06:09:35.273Z,108.31
2022-08-19T06:10:39.348Z,82.44
2022-08-19T06:11:51.849Z,113.37
2022-08-19T06:12:57.171Z,112.88
2022-08-19T06:14:04.365Z,116.44
2022-08-19T06:15:14.415Z,118.25
2022-08-19T06:16:20.847Z,118.37
2022-08-19T06:17:27.936Z,116.69
2022-08-19T06:18:31.997Z,102.81
2022-08-19T06:19:40.598Z,110.50
2022-08-19T06:20:55.540Z,97.94
2022-08-19T06:21:50.416Z,64.87
2022-08-19T06:22:54.621Z,88.81
2022-08-19T06:23:59.140Z,102.87
2022-08-19T06:25:04.829Z,119.75
2022-08-19T06:26:12.733Z,107.56
2022-08-19T06:27:16.769Z,95.44
2022-08-19T06:28:22.379Z,111.37
2022-08-19T06:29:28.275Z,86.87
2022-08-19T06:30:32.424Z,113.50
2022-08-19T06:31:39.564Z,99.75
2022-08-19T06:32:43.786Z,99.69
2022-08-19T06:33:53.589Z,104.63
2022-08-19T06:34:58.536Z,121.44
2022-08-19T06:36:05.274Z,122.19
2022-08-19T06:37:11.587Z,120.13
2022-08-19T06:38:15.580Z,117.13
2022-08-19T06:39:25.551Z,113.00
2022-08-19T06:40:30.067Z,125.75
2022-08-19T06:41:41.038Z,115.69
2022-08-19T06:42:50.227Z,112.25
2022-08-19T06:43:53.983Z,98.81
2022-08-19T06:44:59.147Z,119.69
2022-08-19T06:46:06.881Z,119.13
2022-08-19T06:47:23.689Z,106.81
2022-08-19T06:48:21.136Z,110.25
2022-08-19T06:49:27.773Z,112.62
2022-08-19T06:50:33.195Z,118.44
2022-08-19T06:51:42.551Z,106.87
2022-08-19T06:52:43.411Z,116.69
2022-08-19T06:54:56.838Z,120.56
2022-08-19T06:56:05.035Z,117.25
2022-08-19T06:57:09.263Z,114.75
2022-08-19T06:58:13.351Z,109.06
2022-08-19T06:59:23.248Z,123.94
2022-08-19T07:00:27.690Z,114.81
2022-08-19T07:01:33.314Z,118.87
2022-08-19T07:02:37.611Z,127.06
2022-08-19T07:03:44.182Z,118.87
2022-08-19T07:04:52.861Z,109.69
2022-08-19T07:05:56.934Z,108.37
2022-08-19T07:07:20.257Z,106.50
2022-08-19T07:08:16.919Z,124.00
2022-08-19T07:09:27.541Z,110.94
2022-08-19T07:10:28.606Z,117.81
2022-08-19T07:11:33.026Z,104.44
2022-08-19T07:12:39.884Z,116.75
2022-08-19T07:13:47.087Z,111.12
2022-08-19T07:14:52.680Z,115.12
2022-08-19T07:15:58.625Z,109.63
2022-08-19T07:17:08.457Z,120.00
2022-08-19T07:18:12.571Z,109.69
2022-08-19T07:19:18.917Z,102.62
2022-08-19T07:20:29.513Z,103.38
2022-08-19T07:21:32.432Z,95.75
2022-08-19T07:22:40.045Z,106.60
2022-08-19T07:23:45.086Z,116.25
2022-08-19T07:24:52.063Z,130.87
2022-08-19T07:25:56.339Z,120.37
2022-08-19T07:27:04.598Z,126.69
2022-08-19T07:28:18.042Z,110.63
2022-08-19T07:29:16.137Z,111.94
2022-08-19T07:30:20.788Z,112.06
2022-08-19T07:31:27.414Z,116.88
2022-08-19T07:32:33.373Z,113.00
2022-08-19T07:33:39.295Z,118.06
2022-08-19T07:34:43.358Z,104.25
2022-08-19T07:35:49.252Z,117.44
2022-08-19T07:36:55.878Z,114.37
2022-08-19T07:38:00.326Z,106.94
2022-08-19T07:39:07.335Z,107.87
2022-08-19T07:40:14.092Z,113.69
2022-08-19T07:41:21.304Z,100.25
2022-08-19T07:42:28.407Z,102.75
2022-08-19T07:43:35.002Z,106.81
2022-08-19T07:45:43.331Z,118.75
2022-08-19T07:46:52.846Z,107.31
2022-08-19T07:47:56.170Z,113.25
2022-08-19T07:49:03.011Z,106.63
2022-08-19T07:50:10.222Z,111.75
2022-08-19T07:51:35.978Z,97.37
2022-08-19T07:52:22.347Z,103.00
2022-08-19T07:53:26.692Z,106.75
2022-08-19T07:54:33.695Z,113.62
2022-08-19T07:55:41.446Z,111.88
2022-08-19T07:56:45.226Z,100.69
2022-08-19T07:57:50.820Z,100.25
2022-08-19T08:00:00.978Z,101.69
2022-08-19T08:01:09.251Z,118.31
2022-08-19T08:02:16.046Z,111.94
2022-08-19T08:03:22.913Z,103.50
2022-08-19T08:04:27.321Z,82.93
2022-08-19T08:05:35.565Z,116.06
2022-08-19T08:06:39.003Z,110.33
2022-08-19T08:07:46.481Z,112.37
2022-08-19T08:08:50.377Z,120.25
2022-08-19T08:11:01.629Z,119.69
2022-08-19T08:12:33.225Z,102.00
2022-08-19T08:13:14.619Z,99.25
2022-08-19T08:14:34.898Z,81.12
2022-08-19T08:15:30.389Z,114.94
2022-08-19T08:16:39.805Z,109.25
2022-08-19T08:17:49.310Z,112.88
2022-08-19T08:18:53.218Z,97.12
2022-08-19T08:20:12.312Z,113.19
2022-08-19T08:21:19.609Z,104.06
2022-08-19T08:22:21.445Z,114.00
2022-08-19T08:23:27.362Z,110.94
2022-08-19T08:24:32.816Z,110.88
2022-08-19T08:25:37.996Z,116.00
2022-08-19T08:26:46.882Z,111.62
2022-08-19T08:27:53.813Z,111.19
2022-08-19T08:28:57.554Z,103.56
2022-08-19T08:30:04.054Z,112.88
2022-08-19T08:31:09.763Z,100.56
2022-08-19T08:32:18.889Z,111.75
2022-08-19T08:33:32.897Z,87.37
2022-08-19T08:34:30.851Z,106.19
2022-08-19T08:35:37.164Z,105.37
2022-08-19T08:36:45.557Z,109.44
2022-08-19T08:37:59.514Z,112.62
2022-08-19T08:38:58.938Z,112.12
2022-08-19T08:40:13.324Z,104.00
2022-08-19T08:41:38.085Z,120.81
2022-08-19T08:42:45.201Z,113.94
2022-08-19T08:43:53.502Z,102.06
2022-08-19T08:45:12.466Z,117.50
2022-08-19T08:46:32.010Z,111.31
2022-08-19T08:47:34.174Z,107.75
2022-08-19T08:48:52.588Z,120.94
2022-08-19T08:50:07.712Z,108.31
2022-08-19T08:51:14.750Z,116.12
2022-08-19T08:52:32.031Z,102.75
2022-08-19T08:53:41.405Z,109.37
2022-08-19T08:54:55.480Z,107.87
2022-08-19T08:55:55.666Z,118.44
2022-08-19T08:57:00.186Z,103.50
2022-08-19T08:58:20.519Z,115.31
2022-08-19T08:59:27.515Z,112.62
2022-08-19T09:00:36.537Z,116.75
2022-08-19T09:01:40.636Z,99.37
2022-08-19T09:02:50.620Z,114.00
2022-08-19T09:04:59.777Z,115.81
2022-08-19T09:06:11.844Z,113.19
2022-08-19T09:07:35.984Z,103.06
2022-08-19T09:08:35.483Z,113.31
2022-08-19T09:09:44.972Z,100.19
2022-08-19T09:10:29.016Z,110.69
2022-08-19T09:10:58.932Z,90.25
2022-08-19T09:12:05.203Z,106.94
2022-08-19T09:13:30.265Z,107.75
2022-08-19T09:14:56.508Z,98.06
2022-08-19T09:16:15.342Z,112.94
2022-08-19T09:17:20.448Z,116.19
2022-08-19T09:18:26.072Z,102.69
2022-08-19T09:19:37.649Z,112.50
2022-08-19T09:20:43.018Z,109.87
2022-08-19T09:21:48.846Z,108.19
2022-08-19T09:22:52.906Z,102.44
2022-08-19T09:24:03.428Z,115.50
2022-08-19T09:25:10.624Z,94.56
2022-08-19T09:26:21.994Z,109.19
2022-08-19T09:27:42.982Z,100.81
2022-08-19T09:28:33.626Z,108.12
2022-08-19T09:29:38.119Z,125.38
2022-08-19T09:30:44.973Z,109.94
2022-08-19T09:31:48.954Z,113.25
2022-08-19T09:32:57.588Z,108.25
2022-08-19T09:34:01.800Z,105.12
2022-08-19T09:35:08.760Z,95.44
2022-08-19T09:36:31.071Z,108.75
2022-08-19T09:37:23.813Z,118.69
2022-08-19T09:38:29.003Z,119.69
2022-08-19T09:39:35.921Z,118.62
2022-08-19T09:40:39.033Z,127.62
2022-08-19T09:41:47.528Z,124.50
2022-08-19T09:42:52.601Z,118.19
2022-08-19T09:43:58.288Z,120.25
2022-08-19T09:45:05.219Z,106.25
2022-08-19T09:46:11.763Z,116.31
2022-08-19T09:47:16.219Z,123.00
2022-08-19T09:48:23.664Z,120.06
2022-08-19T09:49:27.903Z,116.37
2022-08-19T09:50:33.284Z,118.81
2022-08-19T09:51:38.980Z,108.50
2022-08-19T09:52:55.083Z,110.19
2022-08-19T09:53:50.864Z,105.69
2022-08-19T09:54:56.550Z,102.75
2022-08-19T09:56:00.557Z,121.44
2022-08-19T09:57:07.826Z,105.12
2022-08-19T09:58:12.116Z,102.75
2022-08-19T09:59:16.363Z,116.62
2022-08-19T10:00:20.813Z,108.19
2022-08-19T10:01:30.009Z,118.44
2022-08-19T10:02:34.526Z,113.44
2022-08-19T10:03:38.784Z,114.06
2022-08-19T10:04:42.915Z,111.31
2022-08-19T10:05:48.878Z,117.56
2022-08-19T10:06:56.642Z,103.87
2022-08-19T10:08:04.380Z,107.56
2022-08-19T10:09:13.048Z,108.37
2022-08-19T10:10:18.579Z,111.37
2022-08-19T10:11:27.879Z,118.69
2022-08-19T10:12:33.125Z,107.06
2022-08-19T10:13:37.640Z,118.75
2022-08-19T10:14:41.716Z,105.94
2022-08-19T10:15:53.571Z,116.25
2022-08-19T10:16:56.640Z,101.44
2022-08-19T10:18:02.653Z,110.81
2022-08-19T10:19:06.838Z,112.44
2022-08-19T10:20:12.412Z,108.56
2022-08-19T10:21:19.371Z,98.37
2022-08-19T10:22:25.592Z,104.56
2022-08-19T10:23:33.679Z,100.25
2022-08-19T10:24:38.002Z,101.94
2022-08-19T10:25:43.506Z,118.62
2022-08-19T10:26:48.432Z,104.19
2022-08-19T10:27:56.123Z,98.00
2022-08-19T10:29:00.863Z,106.75
2022-08-19T10:30:05.439Z,109.69
2022-08-19T10:31:13.933Z,111.00
2022-08-19T10:32:19.563Z,86.00
2022-08-19T10:33:39.362Z,107.37
2022-08-19T10:34:32.274Z,112.56
2022-08-19T10:35:42.571Z,112.44
2022-08-19T10:36:53.831Z,105.69
2022-08-19T10:37:56.794Z,113.81
2022-08-19T10:38:59.354Z,109.44
2022-08-19T10:40:05.124Z,100.44
2022-08-19T10:41:11.776Z,110.88
2022-08-19T10:42:16.239Z,111.56
2022-08-19T10:43:20.464Z,108.94
2022-08-19T10:44:25.218Z,110.81
2022-08-19T10:45:30.983Z,109.50
2022-08-19T10:46:38.232Z,119.06
2022-08-19T10:47:42.436Z,116.62
2022-08-19T10:48:48.526Z,110.12
2022-08-19T10:49:55.642Z,122.25
2022-08-19T10:50:59.990Z,106.56
2022-08-19T10:52:07.334Z,102.69
2022-08-19T10:53:14.541Z,93.06
2022-08-19T10:54:31.250Z,104.73
2022-08-19T10:55:29.255Z,102.87
2022-08-19T10:56:34.815Z,107.06
2022-08-19T10:58:01.345Z,99.31
2022-08-19T10:58:46.125Z,102.75
2022-08-19T10:59:55.067Z,128.25
2022-08-19T11:01:03.419Z,125.31
2022-08-19T11:02:13.397Z,116.56
2022-08-19T11:03:16.188Z,110.12
2022-08-19T11:04:21.069Z,103.87
2022-08-19T11:05:25.121Z,98.19
2022-08-19T11:06:32.239Z,89.00
2022-08-19T11:07:36.297Z,109.25
2022-08-19T11:08:40.705Z,111.12
2022-08-19T11:09:46.375Z,99.69
2022-08-19T11:10:55.760Z,101.00
2022-08-19T11:12:02.743Z,77.47
2022-08-19T11:13:10.045Z,107.73
2022-08-19T11:14:19.801Z,98.81
2022-08-19T11:15:25.765Z,93.62
2022-08-19T11:16:37.814Z,96.19
2022-08-19T11:17:40.410Z,93.73
2022-08-19T11:18:51.075Z,102.31
2022-08-19T11:19:56.646Z,107.56
2022-08-19T11:21:14.359Z,91.87
2022-08-19T11:22:20.441Z,99.20
2022-08-19T11:23:25.078Z,102.50
2022-08-19T11:24:29.838Z,103.75
2022-08-19T11:25:40.417Z,92.87
2022-08-19T11:26:43.404Z,101.80
2022-08-19T11:27:47.496Z,95.31
2022-08-19T11:28:52.185Z,92.13
2022-08-19T11:29:56.706Z,116.44
2022-08-19T11:31:04.206Z,97.87
2022-08-19T11:32:10.536Z,87.80
2022-08-19T11:33:14.581Z,97.80
2022-08-19T11:34:21.832Z,82.88
2022-08-19T11:35:27.437Z,103.12
2022-08-19T11:36:34.361Z,98.25
2022-08-19T11:37:38.392Z,88.80
2022-08-19T11:38:44.273Z,108.12
2022-08-19T11:39:53.944Z,106.37
2022-08-19T11:41:00.795Z,90.67
2022-08-19T11:42:18.975Z,94.25
2022-08-19T11:43:15.403Z,88.00
2022-08-19T11:44:22.486Z,98.31
2022-08-19T11:45:33.476Z,109.19
2022-08-19T11:46:39.818Z,124.19
2022-08-19T11:47:56.457Z,108.87
2022-08-19T11:48:51.228Z,121.50
2022-08-19T11:49:57.696Z,97.33
2022-08-19T11:51:13.575Z,113.50
2022-08-19T11:52:18.608Z,116.50
2022-08-19T11:53:28.129Z,115.81
2022-08-19T11:54:35.218Z,106.19
2022-08-19T11:55:52.556Z,101.69
2022-08-19T11:56:59.657Z,124.50
2022-08-19T11:58:07.944Z,114.62
2022-08-19T11:59:20.070Z,104.38
2022-08-19T12:00:22.841Z,103.44
2022-08-19T12:02:37.782Z,104.38
2022-08-19T12:03:10.308Z,93.12
2022-08-19T12:03:47.850Z,105.81
2022-08-19T12:04:53.607Z,128.75
2022-08-19T12:05:59.246Z,99.94
2022-08-19T12:07:11.769Z,95.25
2022-08-19T12:08:13.774Z,106.25
2022-08-19T12:09:19.821Z,96.75
2022-08-19T12:10:26.381Z,105.87
2022-08-19T12:11:31.288Z,107.69
2022-08-19T12:12:36.798Z,104.63
2022-08-19T12:13:43.972Z,103.06
2022-08-19T12:14:54.266Z,94.06
2022-08-19T12:16:00.639Z,114.50
2022-08-19T12:17:07.816Z,88.81
2022-08-19T12:18:11.313Z,105.56
2022-08-19T12:19:16.823Z,95.27
2022-08-19T12:20:28.484Z,111.12
2022-08-19T12:21:34.552Z,119.94
2022-08-19T12:22:39.864Z,109.87
2022-08-19T12:23:45.087Z,113.31
2022-08-19T12:24:51.928Z,108.31
2022-08-19T12:25:55.959Z,107.13
2022-08-19T12:27:03.505Z,105.93
2022-08-19T12:28:12.959Z,108.33
2022-08-19T12:29:20.428Z,116.44
2022-08-19T12:30:23.068Z,108.50
2022-08-19T12:31:31.845Z,133.19
2022-08-19T12:32:36.084Z,125.81
2022-08-19T12:33:42.358Z,128.31
2022-08-19T12:34:49.678Z,130.75
2022-08-19T12:35:54.384Z,106.44
2022-08-19T12:37:03.770Z,124.75
2022-08-19T12:38:07.861Z,114.20
2022-08-19T12:39:15.107Z,110.88
2022-08-19T12:40:19.867Z,104.27
2022-08-19T12:41:25.523Z,108.31
2022-08-19T12:42:29.968Z,104.40
2022-08-19T12:43:36.373Z,111.69
2022-08-19T12:44:42.725Z,99.44
2022-08-19T12:45:47.379Z,106.06
2022-08-19T12:46:53.794Z,113.75
2022-08-19T12:47:57.464Z,121.06
2022-08-19T12:49:01.626Z,112.12
2022-08-19T12:50:08.039Z,107.50
2022-08-19T12:51:15.537Z,117.44
2022-08-19T12:52:23.120Z,101.44
2022-08-19T12:53:29.395Z,122.56
2022-08-19T12:54:33.537Z,122.81
2022-08-19T12:55:41.196Z,108.07
2022-08-19T12:56:46.516Z,112.06
2022-08-19T12:57:51.526Z,118.87
2022-08-19T12:58:56.979Z,124.69
2022-08-19T13:00:11.595Z,118.06
2022-08-19T13:01:21.992Z,112.37
2022-08-19T13:02:23.370Z,90.27
2022-08-19T13:03:28.916Z,99.47
2022-08-19T13:04:33.554Z,80.75
2022-08-19T13:05:39.137Z,68.80
2022-08-19T13:06:44.719Z,99.13
2022-08-19T13:07:48.888Z,78.53
2022-08-19T13:08:57.705Z,103.87
2022-08-19T13:10:00.826Z,87.53
2022-08-19T13:11:16.382Z,109.27
2022-08-19T13:12:20.438Z,93.25
2022-08-19T13:13:28.303Z,95.56
2022-08-19T13:14:32.064Z,101.75
2022-08-19T13:15:41.001Z,97.87
2022-08-19T13:16:45.656Z,82.40
2022-08-19T13:17:53.856Z,105.60
2022-08-19T13:18:59.604Z,85.33
2022-08-19T13:20:04.722Z,89.87
2022-08-19T13:21:11.752Z,95.69
2022-08-19T13:22:36.311Z,79.07
2022-08-19T13:23:46.139Z,87.69
2022-08-19T13:24:52.017Z,79.50
2022-08-19T13:26:02.707Z,76.87
2022-08-19T13:27:06.923Z,80.12
2022-08-19T13:28:10.906Z,82.67
2022-08-19T13:29:16.836Z,69.13
2022-08-19T13:30:23.383Z,99.94
2022-08-19T13:31:31.782Z,79.12
2022-08-19T13:32:41.411Z,92.93
2022-08-19T13:33:43.152Z,87.19
2022-08-19T13:34:47.217Z,89.33
2022-08-19T13:35:54.235Z,93.20
2022-08-19T13:36:59.375Z,69.69
2022-08-19T13:38:11.839Z,109.19
2022-08-19T13:39:16.963Z,89.87
2022-08-19T13:40:23.098Z,82.40
2022-08-19T13:41:28.634Z,85.50
2022-08-19T13:42:34.136Z,92.53
2022-08-19T13:43:39.761Z,103.47
2022-08-19T13:44:43.742Z,92.69
2022-08-19T13:45:58.564Z,100.75
2022-08-19T13:47:09.270Z,84.73
2022-08-19T13:48:13.367Z,109.63
2022-08-19T13:49:32.140Z,113.81
2022-08-19T13:50:35.979Z,96.63
2022-08-19T13:51:41.032Z,77.67
2022-08-19T13:52:49.687Z,95.31
2022-08-19T13:53:53.514Z,100.87
2022-08-19T13:55:05.180Z,92.13
2022-08-19T13:56:22.997Z,90.50
2022-08-19T13:57:24.309Z,88.00
2022-08-19T13:58:30.909Z,103.87
2022-08-19T13:59:35.055Z,106.60
2022-08-19T14:00:43.058Z,116.69
2022-08-19T14:01:47.074Z,122.00
2022-08-19T14:02:54.187Z,87.87
2022-08-19T14:03:58.254Z,99.60
2022-08-19T14:05:05.995Z,94.69
2022-08-19T14:06:09.267Z,92.06
2022-08-19T14:07:15.115Z,104.75
2022-08-19T14:08:24.153Z,94.67
2022-08-19T14:09:28.430Z,99.75
2022-08-19T14:10:32.921Z,117.75
2022-08-19T14:11:37.133Z,94.20
2022-08-19T14:12:42.942Z,98.37
2022-08-19T14:13:47.037Z,103.25
2022-08-19T14:14:51.129Z,116.37
2022-08-19T14:15:55.103Z,78.13
2022-08-19T14:16:59.258Z,81.00
2022-08-19T14:18:12.019Z,98.50